Terminal Aerodrome Forecast
Issued by NWS Jackson, MS

Current Version | Previous Version | Text Only | Print | Product List | Glossary On
Versions: 1 2 3 4 5 6 7 8 9 10 11 12 13 14 15 16 17 18
456
FTUS44 KJAN 240520
TAFMEI
TAF
KMEI 240520Z 2406/2506 25005KT 5SM SHRA VCTS BKN006CB BKN070
     FM240900 20003KT P6SM OVC015
     FM241400 24005KT P6SM OVC025
     FM241900 31005KT P6SM -RA VCTS OVC035CB
     FM242300 34006KT 6SM -RA VCTS OVC019CB
     FM250200 01003KT P6SM OVC050=

USA.gov is the U.S. government's official web portal to all federal, state and local government web resources and services.